createdAt,value
2024-03-23T00:00:30.945Z,86.4
2024-03-23T00:01:25.415Z,86.7
2024-03-23T00:02:31.583Z,86
2024-03-23T00:03:31.321Z,86.6
2024-03-23T00:04:31.440Z,86.5
2024-03-23T00:05:30.940Z,87.2
2024-03-23T00:06:30.941Z,87
2024-03-23T00:07:31.629Z,87.8
2024-03-23T00:08:30.930Z,88.3
2024-03-23T00:09:30.946Z,87.9
2024-03-23T00:10:31.295Z,86.3
2024-03-23T00:11:31.727Z,85.4
2024-03-23T00:12:30.942Z,85.9
2024-03-23T00:13:30.935Z,87.3
2024-03-23T00:14:31.558Z,86.7
2024-03-23T00:15:31.676Z,87.2
2024-03-23T00:16:31.368Z,87.6
2024-03-23T00:17:31.328Z,87.9
2024-03-23T00:18:30.960Z,88
2024-03-23T00:19:30.936Z,88.3
2024-03-23T00:20:31.407Z,87.6
2024-03-23T00:21:30.943Z,86.9
2024-03-23T00:22:31.360Z,86
2024-03-23T00:23:30.940Z,86.1
2024-03-23T00:24:31.686Z,87.1
2024-03-23T00:25:31.719Z,87.1
2024-03-23T00:26:30.940Z,85.6
2024-03-23T00:27:31.448Z,85.4
2024-03-23T00:28:31.546Z,85.5
2024-03-23T00:29:31.634Z,85.9
2024-03-23T00:30:30.936Z,86.7
2024-03-23T00:31:31.630Z,85.6
2024-03-23T00:32:30.944Z,85.7
2024-03-23T00:33:31.657Z,85.5
2024-03-23T00:34:30.939Z,84
2024-03-23T00:35:31.155Z,85.1
2024-03-23T00:36:30.942Z,86.1
2024-03-23T00:37:31.264Z,86.7
2024-03-23T00:38:30.962Z,87.3
2024-03-23T00:39:30.942Z,86.9
2024-03-23T00:40:31.543Z,86.7
2024-03-23T00:41:30.954Z,86.4
2024-03-23T00:42:31.538Z,85.7
2024-03-23T00:43:31.392Z,85.9
2024-03-23T00:44:31.638Z,86.1
2024-03-23T00:45:31.466Z,86.4
2024-03-23T00:46:31.042Z,86.7
2024-03-23T00:47:31.030Z,86.4
2024-03-23T00:48:30.942Z,86.6
2024-03-23T00:49:31.599Z,86
2024-03-23T00:50:30.937Z,85.6
2024-03-23T00:51:30.945Z,85.7
2024-03-23T00:52:30.996Z,86.3
2024-03-23T00:53:31.672Z,85.9
2024-03-23T00:54:30.969Z,85.2
2024-03-23T00:55:31.136Z,84.6
2024-03-23T00:56:30.969Z,81.5
2024-03-23T00:57:31.146Z,82.3
2024-03-23T00:58:30.948Z,84.5
2024-03-23T00:59:30.950Z,84.1
2024-03-23T01:00:31.560Z,82.1
2024-03-23T01:01:30.959Z,82.8
2024-03-23T01:02:30.955Z,83.4
2024-03-23T01:03:31.402Z,83.4
2024-03-23T01:04:30.950Z,84
2024-03-23T01:05:31.387Z,82.9
2024-03-23T01:06:30.958Z,83.2
2024-03-23T01:07:30.952Z,81.6
2024-03-23T01:08:31.485Z,81.4
2024-03-23T01:09:31.367Z,82.3
2024-03-23T01:10:30.943Z,82.6
2024-03-23T01:12:30.945Z,82.9
2024-03-23T01:13:31.112Z,82.6
2024-03-23T01:14:31.856Z,82.3
2024-03-23T01:15:31.489Z,81.3
2024-03-23T01:16:30.961Z,81.9
2024-03-23T01:17:31.003Z,82.9
2024-03-23T01:18:30.957Z,82.8
2024-03-23T01:19:31.706Z,81.3
2024-03-23T01:20:30.962Z,81.2
2024-03-23T01:21:30.958Z,81.7
2024-03-23T01:22:31.344Z,81
2024-03-23T01:23:30.948Z,81.5
2024-03-23T01:24:30.950Z,82.2
2024-03-23T01:25:30.951Z,83.6
2024-03-23T01:26:31.643Z,82.1
2024-03-23T01:27:31.352Z,81.4
2024-03-23T01:28:31.612Z,81
2024-03-23T01:29:31.420Z,82.2
2024-03-23T01:30:31.170Z,81.6
2024-03-23T01:31:31.259Z,82.1
2024-03-23T01:32:32.874Z,82
2024-03-23T01:33:31.039Z,81.4
2024-03-23T01:34:30.947Z,81
2024-03-23T01:35:30.954Z,82.5
2024-03-23T01:36:31.424Z,82.6
2024-03-23T01:37:30.948Z,83.2
2024-03-23T01:38:31.619Z,82.2
2024-03-23T01:39:31.499Z,80.6
2024-03-23T01:40:31.455Z,79.8
2024-03-23T01:41:30.973Z,79.9
2024-03-23T01:42:31.059Z,80.1
2024-03-23T01:43:31.523Z,80.1
2024-03-23T01:44:31.010Z,79.5
2024-03-23T01:45:31.149Z,79.8
2024-03-23T01:46:31.206Z,80.6
2024-03-23T01:48:31.466Z,79.2
2024-03-23T01:49:30.955Z,78.4
2024-03-23T01:50:31.584Z,78.1
2024-03-23T01:51:30.959Z,79.2
2024-03-23T01:52:31.286Z,79.4
2024-03-23T01:53:30.957Z,79.3
2024-03-23T01:54:30.999Z,80.2
2024-03-23T01:55:30.953Z,81.1
2024-03-23T01:56:30.963Z,81.8
2024-03-23T01:57:31.455Z,83.1
2024-03-23T01:58:30.959Z,83.4
2024-03-23T01:59:29.829Z,84.8
2024-03-23T02:00:31.325Z,85
2024-03-23T02:01:30.958Z,83.9
2024-03-23T02:02:31.648Z,83.2
2024-03-23T02:03:31.262Z,83.8
2024-03-23T02:04:30.965Z,84
2024-03-23T02:05:31.461Z,84.6
2024-03-23T02:06:31.857Z,85.9
2024-03-23T02:07:30.954Z,86.3
2024-03-23T02:08:31.444Z,85.9
2024-03-23T02:09:30.962Z,86.1
2024-03-23T02:10:30.952Z,86.4
2024-03-23T02:11:31.349Z,85.9
2024-03-23T02:12:30.961Z,85.6
2024-03-23T02:13:31.447Z,85.7
2024-03-23T02:14:31.408Z,84.9
2024-03-23T02:15:30.966Z,84.7
2024-03-23T02:16:30.960Z,84.9
2024-03-23T02:17:31.751Z,84.9
2024-03-23T02:18:31.378Z,85.4
2024-03-23T02:19:31.213Z,85.6
2024-03-23T02:20:32.345Z,85.6
2024-03-23T02:21:30.963Z,85.6
2024-03-23T02:22:31.540Z,84.9
2024-03-23T02:23:31.340Z,84.8
2024-03-23T02:24:30.961Z,84.6
2024-03-23T02:25:31.562Z,84.2
2024-03-23T02:26:31.397Z,81.9
2024-03-23T02:27:30.967Z,81.2
2024-03-23T02:28:30.953Z,82.8
2024-03-23T02:29:30.963Z,83.7
2024-03-23T02:30:31.317Z,84
2024-03-23T02:31:29.974Z,84.1
2024-03-23T02:32:30.973Z,85
2024-03-23T02:33:31.652Z,85.4
2024-03-23T02:34:30.968Z,84.9
2024-03-23T02:35:31.186Z,85.5
2024-03-23T02:36:31.341Z,85.7
2024-03-23T02:37:31.230Z,84.6
2024-03-23T02:38:31.371Z,84.4
2024-03-23T02:39:30.970Z,85.1
2024-03-23T02:40:30.980Z,85.2
2024-03-23T02:41:31.498Z,84.5
2024-03-23T02:42:30.963Z,84.9
2024-03-23T02:43:31.671Z,85.4
2024-03-23T02:44:31.336Z,85.9
2024-03-23T02:45:31.657Z,86.3
2024-03-23T02:46:30.963Z,85.8
2024-03-23T02:47:30.975Z,84.9
2024-03-23T02:48:30.982Z,84.7
2024-03-23T02:49:31.091Z,84.4
2024-03-23T02:50:31.456Z,84.3
2024-03-23T02:51:30.958Z,84.2
2024-03-23T02:52:30.965Z,84
2024-03-23T02:53:31.124Z,84.3
2024-03-23T02:54:31.262Z,85.1
2024-03-23T02:55:31.640Z,83.9
2024-03-23T02:56:31.138Z,83.8
2024-03-23T02:57:31.234Z,83.1
2024-03-23T02:58:31.411Z,82.9
2024-03-23T02:59:31.226Z,83.4
2024-03-23T03:00:31.383Z,84.2
2024-03-23T03:02:31.430Z,82
2024-03-23T03:03:30.979Z,81.7
2024-03-23T03:04:31.005Z,81
2024-03-23T03:05:31.793Z,80.5
2024-03-23T03:06:30.964Z,80.5
2024-03-23T03:07:30.972Z,80.7
2024-03-23T03:08:30.970Z,80.7
2024-03-23T03:09:31.645Z,80.8
2024-03-23T03:10:31.284Z,81
2024-03-23T03:11:31.074Z,81.4
2024-03-23T03:12:31.744Z,81.2
2024-03-23T03:13:31.404Z,81.9
2024-03-23T03:14:31.370Z,81.6
2024-03-23T03:15:30.968Z,82.6
2024-03-23T03:16:31.397Z,81.9
2024-03-23T03:17:31.234Z,81.2
2024-03-23T03:18:30.966Z,81
2024-03-23T03:19:31.522Z,80.7
2024-03-23T03:20:31.482Z,81.4
2024-03-23T03:21:30.967Z,81.4
2024-03-23T03:22:30.969Z,80.9
2024-03-23T03:23:32.650Z,80.2
2024-03-23T03:24:31.745Z,79.7
2024-03-23T03:25:31.344Z,78.7
2024-03-23T03:26:31.803Z,80.7
2024-03-23T03:27:30.969Z,81.2
2024-03-23T03:28:31.096Z,80.8
2024-03-23T03:29:31.216Z,80.3
2024-03-23T03:30:31.512Z,80.7
2024-03-23T03:31:31.039Z,80.3
2024-03-23T03:32:31.654Z,80.9
2024-03-23T03:33:31.007Z,81.8
2024-03-23T03:34:31.378Z,82.3
2024-03-23T03:35:30.969Z,81
2024-03-23T03:36:30.990Z,82.2
2024-03-23T03:37:31.006Z,82.5
2024-03-23T03:38:31.375Z,83.4
2024-03-23T03:39:31.233Z,83.6
2024-03-23T03:40:30.972Z,84.1
2024-03-23T03:41:31.814Z,83.9
2024-03-23T03:42:30.983Z,82.3
2024-03-23T03:43:31.272Z,83.3
2024-03-23T03:44:31.512Z,82.3
2024-03-23T03:45:31.195Z,82.3
2024-03-23T03:46:31.529Z,83.8
2024-03-23T03:47:30.977Z,84.6
2024-03-23T03:48:30.979Z,84.5
2024-03-23T03:49:31.539Z,84.7
2024-03-23T03:50:31.795Z,84.5
2024-03-23T03:51:30.980Z,82.8
2024-03-23T03:52:31.482Z,82.6
2024-03-23T03:53:31.471Z,80.9
2024-03-23T03:54:31.006Z,80.7
2024-03-23T03:55:30.973Z,80.7
2024-03-23T03:56:31.807Z,80.1
2024-03-23T03:57:30.967Z,81.5
2024-03-23T03:58:30.976Z,81.4
2024-03-23T03:59:31.661Z,80.1
2024-03-23T04:00:31.368Z,81.3
2024-03-23T04:01:31.585Z,82.6
2024-03-23T04:02:31.918Z,84
2024-03-23T04:03:31.615Z,84
2024-03-23T04:04:31.547Z,83.7
2024-03-23T04:05:30.978Z,82.7
2024-03-23T04:06:31.609Z,82.4
2024-03-23T04:07:30.985Z,82.5
2024-03-23T04:08:31.090Z,83.1
2024-03-23T04:09:31.597Z,82.8
2024-03-23T04:10:30.986Z,81.7
2024-03-23T04:11:31.812Z,81.8
2024-03-23T04:12:31.002Z,80.5
2024-03-23T04:13:30.979Z,79.9
2024-03-23T04:14:31.115Z,80
2024-03-23T04:15:31.833Z,79.9
2024-03-23T04:16:30.998Z,80.2
2024-03-23T04:17:30.977Z,80.6
2024-03-23T04:18:31.196Z,80.8
2024-03-23T04:19:30.987Z,81.7
2024-03-23T04:20:30.976Z,82.7
2024-03-23T04:21:31.033Z,83.4
2024-03-23T04:22:31.406Z,82.9
2024-03-23T04:23:31.004Z,82.3
2024-03-23T04:24:31.018Z,81.7
2024-03-23T04:25:31.267Z,80.9
2024-03-23T04:26:30.984Z,81.5
2024-03-23T04:27:31.006Z,81.5
2024-03-23T04:28:31.223Z,81
2024-03-23T04:29:29.855Z,82.5
2024-03-23T04:30:31.847Z,84
2024-03-23T04:31:31.559Z,84.5
2024-03-23T04:32:31.301Z,84.9
2024-03-23T04:33:31.023Z,84.5
2024-03-23T04:34:31.655Z,82.7
2024-03-23T04:35:31.827Z,82.5
2024-03-23T04:36:30.994Z,83.8
2024-03-23T04:37:31.804Z,84.1
2024-03-23T04:38:31.661Z,84
2024-03-23T04:39:30.988Z,85.2
2024-03-23T04:40:30.980Z,84.3
2024-03-23T04:41:30.975Z,83
2024-03-23T04:42:31.020Z,82.5
2024-03-23T04:43:31.290Z,82.2
2024-03-23T04:44:30.978Z,82.2
2024-03-23T04:45:31.821Z,83.9
2024-03-23T04:46:31.053Z,84.2
2024-03-23T04:47:32.964Z,83.4
2024-03-23T04:48:31.467Z,83.1
2024-03-23T04:49:31.621Z,82.6
2024-03-23T04:50:30.974Z,83.2
2024-03-23T04:51:31.001Z,83.1
2024-03-23T04:52:31.673Z,83.4
2024-03-23T04:53:31.000Z,83.8
2024-03-23T04:54:31.023Z,82.9
2024-03-23T04:55:31.533Z,83.5
2024-03-23T04:56:30.989Z,84.8
2024-03-23T04:57:31.006Z,83.6
2024-03-23T04:58:30.979Z,83.2
2024-03-23T04:59:30.984Z,83.3
2024-03-23T05:00:31.717Z,84.1
2024-03-23T05:01:29.853Z,83.1
2024-03-23T05:02:31.442Z,82.6
2024-03-23T05:03:31.010Z,83.2
2024-03-23T05:05:31.269Z,84.1
2024-03-23T05:06:31.548Z,84
2024-03-23T05:07:31.534Z,84
2024-03-23T05:08:31.522Z,83.5
2024-03-23T05:09:31.239Z,83.5
2024-03-23T05:10:31.566Z,84
2024-03-23T05:11:31.042Z,83.9
2024-03-23T05:12:31.776Z,83.7
2024-03-23T05:13:31.512Z,83.4
2024-03-23T05:14:30.983Z,82.9
2024-03-23T05:15:31.024Z,83.8
2024-03-23T05:16:30.976Z,83.8
2024-03-23T05:17:31.842Z,83.9
2024-03-23T05:18:31.025Z,84.7
2024-03-23T05:19:30.995Z,84.8
2024-03-23T05:20:30.987Z,84.7
2024-03-23T05:21:31.599Z,84.4
2024-03-23T05:22:30.997Z,84.3
2024-03-23T05:23:31.450Z,84.4
2024-03-23T05:24:31.339Z,83.3
2024-03-23T05:25:31.523Z,83.7
2024-03-23T05:26:30.998Z,83.6
2024-03-23T05:27:31.493Z,83.4
2024-03-23T05:28:31.404Z,83.9
2024-03-23T05:29:31.354Z,84.1
2024-03-23T05:30:31.033Z,84.3
2024-03-23T05:31:30.987Z,84.4
2024-03-23T05:32:30.987Z,85
2024-03-23T05:33:31.605Z,85.2
2024-03-23T05:34:30.992Z,84.8
2024-03-23T05:35:31.555Z,85.1
2024-03-23T05:36:31.010Z,85.1
2024-03-23T05:37:30.983Z,85.5
2024-03-23T05:38:31.648Z,85.9
2024-03-23T05:39:31.020Z,85.4
2024-03-23T05:40:31.752Z,84.4
2024-03-23T05:41:31.128Z,84.8
2024-03-23T05:42:31.365Z,84.3
2024-03-23T05:43:30.986Z,84.1
2024-03-23T05:44:31.102Z,83.9
2024-03-23T05:45:31.733Z,84.2
2024-03-23T05:46:31.847Z,84.8
2024-03-23T05:47:30.996Z,85.2
2024-03-23T05:48:31.208Z,85.5
2024-03-23T05:49:31.738Z,85.8
2024-03-23T05:50:31.013Z,85.9
2024-03-23T05:51:31.016Z,85.9
2024-03-23T05:52:31.650Z,85.6
2024-03-23T05:53:31.041Z,84.9
2024-03-23T05:54:31.447Z,84.7
2024-03-23T05:55:31.247Z,83.8
2024-03-23T05:56:30.989Z,84.5
2024-03-23T05:57:31.003Z,85.3
2024-03-23T05:58:31.249Z,85.1
2024-03-23T05:59:30.986Z,85.4
2024-03-23T06:00:31.777Z,85.6
2024-03-23T06:01:31.005Z,86.3
2024-03-23T06:02:30.989Z,85.9
2024-03-23T06:03:31.030Z,84.9
2024-03-23T06:04:30.996Z,85.2
2024-03-23T06:05:31.501Z,84.2
2024-03-23T06:06:31.531Z,83.9
2024-03-23T06:07:30.997Z,84
2024-03-23T06:08:30.992Z,84.1
2024-03-23T06:09:31.392Z,83.7
2024-03-23T06:10:31.564Z,83.8
2024-03-23T06:11:31.165Z,84.3
2024-03-23T06:12:31.011Z,84.1
2024-03-23T06:13:31.000Z,83.5
2024-03-23T06:14:31.045Z,84.1
2024-03-23T06:15:31.073Z,84.1
2024-03-23T06:16:30.996Z,84.3
2024-03-23T06:17:31.351Z,84.4
2024-03-23T06:18:30.998Z,84.6
2024-03-23T06:19:30.994Z,84.6
2024-03-23T06:20:31.540Z,84.7
2024-03-23T06:21:31.372Z,84.5
2024-03-23T06:22:30.991Z,85
2024-03-23T06:23:30.992Z,85.6
2024-03-23T06:24:31.443Z,85.3
2024-03-23T06:25:31.205Z,85.5
2024-03-23T06:26:30.999Z,84.7
2024-03-23T06:27:31.443Z,85.2
2024-03-23T06:28:30.996Z,84.7
2024-03-23T06:29:31.274Z,85.5
2024-03-23T06:30:31.008Z,85.7
2024-03-23T06:31:30.992Z,85.2
2024-03-23T06:32:31.000Z,84.5
2024-03-23T06:33:31.011Z,85
2024-03-23T06:34:31.001Z,84.7
2024-03-23T06:35:31.047Z,85.1
2024-03-23T06:36:31.394Z,84.8
2024-03-23T06:37:30.993Z,84.8
2024-03-23T06:38:31.519Z,84.3
2024-03-23T06:39:31.926Z,84.2
2024-03-23T06:40:31.006Z,84.1
2024-03-23T06:41:31.001Z,84.6
2024-03-23T06:42:31.434Z,84.7
2024-03-23T06:43:31.341Z,85.1
2024-03-23T06:44:31.009Z,85.6
2024-03-23T06:45:30.995Z,85.3
2024-03-23T06:46:31.001Z,84.9
2024-03-23T06:47:31.876Z,84.9
2024-03-23T06:48:31.046Z,85.3
2024-03-23T06:49:31.011Z,84.6
2024-03-23T06:50:31.003Z,85
2024-03-23T06:52:31.655Z,84.9
2024-03-23T06:53:31.705Z,84.4
2024-03-23T06:54:31.021Z,84.5
2024-03-23T06:55:31.002Z,85.3
2024-03-23T06:56:30.995Z,85.5
2024-03-23T06:57:31.029Z,85
2024-03-23T06:58:31.678Z,85
2024-03-23T06:59:30.492Z,84.5
2024-03-23T07:00:31.050Z,84
2024-03-23T07:01:44.893Z,84
2024-03-23T07:02:44.833Z,84
2024-03-23T07:03:34.603Z,83.2
2024-03-23T07:04:34.556Z,83.4
2024-03-23T07:05:34.569Z,83.9
2024-03-23T07:06:34.593Z,83.8
2024-03-23T07:07:34.559Z,83.6
2024-03-23T07:08:34.570Z,83.8
2024-03-23T07:09:34.574Z,83.6
2024-03-23T07:10:35.335Z,84.2
2024-03-23T07:11:34.558Z,84
2024-03-23T07:12:34.568Z,83.4
2024-03-23T07:13:34.550Z,83.7
2024-03-23T07:14:34.558Z,84.2
2024-03-23T07:15:34.966Z,84.6
2024-03-23T07:16:34.566Z,84.3
2024-03-23T07:17:34.551Z,83.1
2024-03-23T07:18:34.591Z,83
2024-03-23T07:19:34.557Z,82.9
2024-03-23T07:20:34.558Z,83
2024-03-23T07:21:34.579Z,83.9
2024-03-23T07:22:34.552Z,84.1
2024-03-23T07:23:34.559Z,84.4
2024-03-23T07:24:34.601Z,84.2
2024-03-23T07:25:34.569Z,84.4
2024-03-23T07:26:35.318Z,84.1
2024-03-23T07:27:34.580Z,83.2
2024-03-23T07:28:34.560Z,83
2024-03-23T07:29:34.558Z,83.4
2024-03-23T07:30:34.572Z,83.9
2024-03-23T07:31:34.553Z,83.6
2024-03-23T07:32:34.557Z,83.1
2024-03-23T07:33:34.569Z,82.6
2024-03-23T07:34:34.551Z,82.6
2024-03-23T07:35:34.560Z,82.5
2024-03-23T07:36:34.561Z,81.5
2024-03-23T07:37:34.557Z,82.1
2024-03-23T07:38:34.563Z,81.6
2024-03-23T07:39:34.582Z,81.3
2024-03-23T07:40:34.556Z,81.2
2024-03-23T07:41:34.552Z,81.2
2024-03-23T07:42:34.564Z,81.2
2024-03-23T07:43:34.552Z,80.9
2024-03-23T07:44:34.612Z,80.6
2024-03-23T07:45:34.589Z,80.5
2024-03-23T07:46:34.563Z,80.3
2024-03-23T07:47:34.564Z,81.2
2024-03-23T07:48:34.941Z,82
2024-03-23T07:49:34.563Z,81
2024-03-23T07:50:34.569Z,80.8
2024-03-23T07:51:34.582Z,80.3
2024-03-23T07:52:34.573Z,80.4
2024-03-23T07:53:34.558Z,80.5
2024-03-23T07:54:34.571Z,80.1
2024-03-23T07:55:34.585Z,79.8
2024-03-23T07:56:34.573Z,78.8
2024-03-23T07:57:34.571Z,78.8
2024-03-23T07:58:34.555Z,78.7
2024-03-23T07:59:36.089Z,78.2
2024-03-23T08:00:34.580Z,78.9
2024-03-23T08:01:34.557Z,78.3
2024-03-23T08:02:34.558Z,78.6
2024-03-23T08:03:34.589Z,77.8
2024-03-23T08:04:34.555Z,78.2
2024-03-23T08:05:34.564Z,78.2
2024-03-23T08:06:39.968Z,78.4
2024-03-23T08:07:34.556Z,77
2024-03-23T08:08:34.568Z,76.8
2024-03-23T08:09:34.569Z,76.8
2024-03-23T08:10:34.945Z,76.2
2024-03-23T08:11:34.555Z,76.4
2024-03-23T08:12:34.578Z,75.8
2024-03-23T08:13:34.559Z,75.3
2024-03-23T08:14:34.563Z,76.1
2024-03-23T08:15:34.562Z,76.5
2024-03-23T08:16:34.603Z,76
2024-03-23T08:17:34.554Z,76.4
2024-03-23T08:18:34.610Z,76.6
2024-03-23T08:19:34.553Z,76.5
2024-03-23T08:20:34.573Z,76.1
2024-03-23T08:21:34.560Z,75
2024-03-23T08:22:34.559Z,75.5
2024-03-23T08:23:34.638Z,75
2024-03-23T08:24:34.573Z,74
2024-03-23T08:25:34.562Z,74.3
2024-03-23T08:26:34.560Z,74.3
2024-03-23T08:27:34.630Z,74.7
2024-03-23T08:28:34.561Z,74.8
2024-03-23T08:29:34.558Z,74.3
2024-03-23T08:30:34.587Z,73.8
2024-03-23T08:31:34.576Z,74.2
2024-03-23T08:32:34.576Z,74
2024-03-23T08:33:35.624Z,73.9
2024-03-23T08:34:34.559Z,73.8
2024-03-23T08:35:34.609Z,73.6
2024-03-23T08:36:34.578Z,73.8
2024-03-23T08:37:34.567Z,73
2024-03-23T08:38:34.563Z,73.3
2024-03-23T08:39:34.578Z,73.5
2024-03-23T08:40:34.597Z,73.7
2024-03-23T08:41:34.558Z,72.3
2024-03-23T08:42:34.909Z,72.8
2024-03-23T08:43:34.564Z,72.6
2024-03-23T08:44:34.568Z,72.8
2024-03-23T08:45:34.629Z,74.2
2024-03-23T08:46:34.575Z,72.3
2024-03-23T08:47:34.555Z,71.7
2024-03-23T08:48:34.594Z,71.6
2024-03-23T08:49:34.562Z,72.1
2024-03-23T08:50:34.559Z,73.2
2024-03-23T08:51:34.576Z,72.2
2024-03-23T08:52:34.577Z,72.7
2024-03-23T08:53:34.569Z,72.2
2024-03-23T08:54:34.570Z,70.4
2024-03-23T08:55:34.560Z,70.1
2024-03-23T08:56:34.575Z,69.6
2024-03-23T08:57:34.580Z,70.6
2024-03-23T08:58:34.574Z,67.9
2024-03-23T08:59:34.566Z,68.5
2024-03-23T09:00:34.570Z,68
2024-03-23T09:01:34.571Z,67.6
2024-03-23T09:02:34.570Z,68.2
2024-03-23T09:03:34.583Z,68.4
2024-03-23T09:04:34.578Z,66.7
2024-03-23T09:05:34.567Z,67.6
2024-03-23T09:06:34.573Z,67.4
2024-03-23T09:07:34.618Z,67.6
2024-03-23T09:08:34.572Z,66.9
2024-03-23T09:09:34.577Z,67.2
2024-03-23T09:10:34.576Z,66.9
2024-03-23T09:11:34.571Z,66.4
2024-03-23T09:12:34.588Z,66.5
2024-03-23T09:13:35.346Z,66.7
2024-03-23T09:14:34.570Z,67.1
2024-03-23T09:15:34.621Z,67.4
2024-03-23T09:16:34.568Z,67.8
2024-03-23T09:17:34.571Z,66.2
2024-03-23T09:18:34.583Z,66.3
2024-03-23T09:19:35.539Z,66.4
2024-03-23T09:20:34.577Z,65.4
2024-03-23T09:21:34.653Z,65.9
2024-03-23T09:22:40.185Z,66.4
2024-03-23T09:23:34.575Z,66
2024-03-23T09:24:34.570Z,67
2024-03-23T09:25:37.101Z,66.2
2024-03-23T09:26:34.577Z,65.7
2024-03-23T09:27:34.587Z,67.5
2024-03-23T09:28:34.574Z,66.5
2024-03-23T09:29:34.564Z,66.2
2024-03-23T09:31:34.623Z,64.9
2024-03-23T09:32:34.573Z,65
2024-03-23T09:33:34.585Z,64.4
2024-03-23T09:34:34.564Z,65.3
2024-03-23T09:35:34.571Z,64.7
2024-03-23T09:36:34.577Z,65.3
2024-03-23T09:37:34.571Z,65.3
2024-03-23T09:38:34.572Z,64.4
2024-03-23T09:39:34.579Z,62.9
2024-03-23T09:40:34.567Z,65.2
2024-03-23T09:41:34.561Z,63.7
2024-03-23T09:42:34.586Z,64.3
2024-03-23T09:43:34.573Z,62.8
2024-03-23T09:44:34.573Z,62
2024-03-23T09:45:34.579Z,62.1
2024-03-23T09:46:34.577Z,63.7
2024-03-23T09:47:34.973Z,65.4
2024-03-23T09:48:34.671Z,61.9
2024-03-23T09:49:34.572Z,63.1
2024-03-23T09:50:34.573Z,64.6
2024-03-23T09:51:34.595Z,63.8
2024-03-23T09:52:34.577Z,62.8
2024-03-23T09:53:34.581Z,62.5
2024-03-23T09:54:34.579Z,62.6
2024-03-23T09:55:34.571Z,63.4
2024-03-23T09:56:36.539Z,63.6
2024-03-23T09:57:34.580Z,63.6
2024-03-23T09:58:34.628Z,63.6
2024-03-23T09:59:34.958Z,62.4
2024-03-23T10:00:34.594Z,62.5
2024-03-23T10:01:34.574Z,61.7
2024-03-23T10:02:34.572Z,61.7
2024-03-23T10:03:34.583Z,62.5
2024-03-23T10:04:34.581Z,63.2
2024-03-23T10:05:41.401Z,63.5
2024-03-23T10:06:34.585Z,62.5
2024-03-23T10:07:34.575Z,63.8
2024-03-23T10:08:36.413Z,63.2
2024-03-23T10:09:34.578Z,61.2
2024-03-23T10:10:34.581Z,61
2024-03-23T10:11:34.571Z,61.5
2024-03-23T10:12:34.577Z,60.6
2024-03-23T10:13:34.581Z,61.5
2024-03-23T10:14:34.583Z,61.2
2024-03-23T10:15:34.629Z,60.1
2024-03-23T10:16:34.591Z,60.4
2024-03-23T10:17:34.580Z,59.9
2024-03-23T10:18:34.578Z,60.3
2024-03-23T10:19:34.589Z,60.4
2024-03-23T10:20:34.575Z,59.9
2024-03-23T10:21:34.578Z,60.7
2024-03-23T10:22:27.673Z,60.8
2024-03-23T10:25:34.591Z,61
2024-03-23T10:26:34.602Z,61.1
2024-03-23T10:27:34.623Z,62.9
2024-03-23T10:28:34.572Z,62.6
2024-03-23T10:29:34.578Z,63.6
2024-03-23T10:30:34.579Z,64.1
2024-03-23T10:31:34.586Z,63.4
2024-03-23T10:32:34.664Z,64
2024-03-23T10:33:34.576Z,64.3
2024-03-23T10:34:34.580Z,63.8
2024-03-23T10:35:34.580Z,64.5
2024-03-23T10:36:34.598Z,64.3
2024-03-23T10:37:34.582Z,64.3
2024-03-23T10:38:34.585Z,64.4
2024-03-23T10:39:34.575Z,63.6
2024-03-23T10:40:34.597Z,61.5
2024-03-23T10:41:34.585Z,61.5
2024-03-23T10:42:35.158Z,60.5
2024-03-23T10:43:34.591Z,58.8
2024-03-23T10:44:34.589Z,58.4
2024-03-23T10:45:35.897Z,59.6
2024-03-23T10:46:34.583Z,57.7
2024-03-23T10:47:34.584Z,58.3
2024-03-23T10:48:34.583Z,57.1
2024-03-23T10:49:34.630Z,56.5
2024-03-23T10:50:34.587Z,57.7
2024-03-23T10:51:34.589Z,57.1
2024-03-23T10:52:34.583Z,57.6
2024-03-23T10:53:34.591Z,58.4
2024-03-23T10:54:34.579Z,59.5
2024-03-23T10:55:34.591Z,60
2024-03-23T10:56:34.591Z,60
2024-03-23T10:57:34.586Z,60.7
2024-03-23T10:58:34.589Z,61.9
2024-03-23T10:59:34.588Z,60.4
2024-03-23T11:00:34.580Z,59.9
2024-03-23T11:01:34.591Z,59.4
2024-03-23T11:02:34.578Z,59.6
2024-03-23T11:03:34.580Z,59.7
2024-03-23T11:04:34.588Z,59.4
2024-03-23T11:05:34.577Z,59
2024-03-23T11:06:34.588Z,58.4
2024-03-23T11:07:34.583Z,57.6
2024-03-23T11:08:34.586Z,57.4
2024-03-23T11:09:34.584Z,57.9
2024-03-23T11:10:34.585Z,57.1
2024-03-23T11:11:34.584Z,58.1
2024-03-23T11:12:34.589Z,58.6
2024-03-23T11:13:34.598Z,58.2
2024-03-23T11:14:34.586Z,58.2
2024-03-23T11:15:34.586Z,58.2
2024-03-23T11:16:34.579Z,59.1
2024-03-23T11:17:34.585Z,58.4
2024-03-23T11:18:34.582Z,59
2024-03-23T11:19:34.588Z,57.8
2024-03-23T11:20:34.590Z,58.3
2024-03-23T11:21:34.653Z,58.8
2024-03-23T11:22:34.982Z,57.9
2024-03-23T11:23:34.586Z,58.3
2024-03-23T11:24:34.588Z,57.4
2024-03-23T11:25:34.587Z,56.7
2024-03-23T11:26:34.586Z,57.7
2024-03-23T11:27:34.592Z,57.4
2024-03-23T11:28:34.595Z,57.9
2024-03-23T11:29:34.586Z,57.8
2024-03-23T11:30:34.592Z,58.8
2024-03-23T11:31:34.585Z,59.2
2024-03-23T11:32:34.592Z,58.4
2024-03-23T11:33:34.599Z,59.1
2024-03-23T11:34:34.597Z,57.9
2024-03-23T11:35:34.583Z,58
2024-03-23T11:36:34.598Z,58.1
2024-03-23T11:37:34.595Z,58.3
2024-03-23T11:38:34.599Z,57.6
2024-03-23T11:39:34.589Z,57.7
2024-03-23T11:40:34.591Z,58.5
2024-03-23T11:41:34.589Z,57.2
2024-03-23T11:42:34.590Z,58.5
2024-03-23T11:43:34.605Z,56.5
2024-03-23T11:44:34.598Z,56.9
2024-03-23T11:45:34.591Z,56.3
2024-03-23T11:46:34.587Z,55.8
2024-03-23T11:47:34.598Z,56.3
2024-03-23T11:48:34.595Z,55
2024-03-23T11:49:34.586Z,55.8
2024-03-23T11:50:34.598Z,55.9
2024-03-23T11:51:34.596Z,56.6
2024-03-23T11:52:34.592Z,56
2024-03-23T11:53:34.597Z,55.4
2024-03-23T11:54:34.596Z,54.9
2024-03-23T11:55:34.597Z,56
2024-03-23T11:56:34.594Z,55
2024-03-23T11:57:34.596Z,54.9
2024-03-23T11:58:34.605Z,55.7
2024-03-23T11:59:34.602Z,54.8
2024-03-23T12:00:34.602Z,54
2024-03-23T12:01:34.593Z,54.8
2024-03-23T12:02:34.616Z,55.1
2024-03-23T12:03:34.610Z,55.1
2024-03-23T12:04:34.611Z,55.1
2024-03-23T12:05:34.602Z,53.9
2024-03-23T12:06:34.594Z,53.7
2024-03-23T12:07:34.596Z,53.2
2024-03-23T12:08:34.593Z,53.4
2024-03-23T12:09:34.596Z,52.3
2024-03-23T12:10:34.598Z,53.5
2024-03-23T12:11:34.592Z,53.6
2024-03-23T12:12:34.594Z,54.4
2024-03-23T12:13:34.595Z,54.3
2024-03-23T12:14:34.594Z,55
2024-03-23T12:15:34.594Z,56.1
2024-03-23T12:16:34.615Z,57.5
2024-03-23T12:17:34.631Z,56.4
2024-03-23T12:18:34.598Z,58.1
2024-03-23T12:19:34.605Z,58.6
2024-03-23T12:20:34.601Z,58.1
2024-03-23T12:21:34.602Z,58.1
2024-03-23T12:22:34.648Z,57.8
2024-03-23T12:23:34.599Z,58.1
2024-03-23T12:24:34.596Z,57.7
2024-03-23T12:25:34.605Z,56.5
2024-03-23T12:26:34.603Z,55.9
2024-03-23T12:27:34.606Z,55.3
2024-03-23T12:28:34.601Z,55.1
2024-03-23T12:29:34.649Z,56
2024-03-23T12:30:34.599Z,55.4
2024-03-23T12:31:34.604Z,53.5
2024-03-23T12:32:34.600Z,54.3
2024-03-23T12:33:34.601Z,54.2
2024-03-23T12:34:34.657Z,53.9
2024-03-23T12:35:34.595Z,54.2
2024-03-23T12:37:34.603Z,53.4
2024-03-23T12:38:34.602Z,53
2024-03-23T12:39:34.609Z,52.3
2024-03-23T12:40:34.601Z,51.7
2024-03-23T12:41:34.607Z,51.8
2024-03-23T12:42:34.611Z,51.5
2024-03-23T12:43:34.602Z,51.6
2024-03-23T12:44:34.600Z,52.1
2024-03-23T12:45:34.606Z,52.3
2024-03-23T12:46:34.597Z,52
2024-03-23T12:47:34.594Z,52.2
2024-03-23T12:48:34.656Z,52.4
2024-03-23T12:49:34.605Z,52.9
2024-03-23T12:50:34.605Z,52.8
2024-03-23T12:51:34.611Z,53.2
2024-03-23T12:52:34.613Z,53.2
2024-03-23T12:53:34.652Z,53
2024-03-23T12:54:34.620Z,53.4
2024-03-23T12:55:34.611Z,53.9
2024-03-23T12:56:34.602Z,53.4
2024-03-23T12:57:34.630Z,55
2024-03-23T12:58:34.624Z,55.9
2024-03-23T12:59:34.612Z,55.5
2024-03-23T13:00:34.611Z,56.1
2024-03-23T13:01:34.607Z,56.6
2024-03-23T13:02:36.127Z,57.3
2024-03-23T13:03:34.603Z,58
2024-03-23T13:04:34.597Z,59.4
2024-03-23T13:05:34.603Z,60.7
2024-03-23T13:06:34.600Z,61.5
2024-03-23T13:07:34.620Z,62.5
2024-03-23T13:08:34.637Z,64.4
2024-03-23T13:09:34.602Z,64.3
2024-03-23T13:10:34.674Z,66.3
2024-03-23T13:11:34.604Z,67.3
2024-03-23T13:12:34.607Z,67.8
2024-03-23T13:13:34.639Z,67.5
2024-03-23T13:14:34.605Z,68
2024-03-23T13:15:34.649Z,68.7
2024-03-23T13:16:34.607Z,69.3
2024-03-23T13:17:34.610Z,68.2
2024-03-23T13:18:34.610Z,69.8
2024-03-23T13:19:35.473Z,71.4
2024-03-23T13:20:34.624Z,69.7
2024-03-23T13:21:34.609Z,69.9
2024-03-23T13:22:34.610Z,68.3
2024-03-23T13:23:34.622Z,68.8
2024-03-23T13:24:34.610Z,69.3
2024-03-23T13:25:34.601Z,68.6
2024-03-23T13:26:34.606Z,69.3
2024-03-23T13:27:34.601Z,68.3
2024-03-23T13:28:34.610Z,68.2
2024-03-23T13:29:34.614Z,67.7
2024-03-23T13:30:34.607Z,67.9
2024-03-23T13:31:34.611Z,67.6
2024-03-23T13:32:34.605Z,67.2